createdAt,value
2019-03-17T00:01:38.787Z,5.70
2019-03-17T00:04:10.714Z,5.70
2019-03-17T00:06:42.616Z,5.70
2019-03-17T00:09:14.347Z,5.70
2019-03-17T00:11:46.284Z,5.70
2019-03-17T00:14:20.288Z,5.70
2019-03-17T00:16:52.114Z,5.70
2019-03-17T00:19:23.794Z,5.70
2019-03-17T00:21:55.534Z,5.70
2019-03-17T00:24:27.583Z,5.70
2019-03-17T00:26:59.219Z,5.70
2019-03-17T00:29:31.037Z,5.70
2019-03-17T00:32:02.757Z,5.70
2019-03-17T00:34:43.725Z,5.70
2019-03-17T00:37:08.214Z,5.70
2019-03-17T00:39:39.944Z,5.70
2019-03-17T00:42:11.653Z,5.70
2019-03-17T00:44:43.222Z,5.70
2019-03-17T00:47:15.031Z,5.60
2019-03-17T00:49:46.677Z,5.60
2019-03-17T00:52:18.453Z,5.60
2019-03-17T00:54:50.172Z,5.60
2019-03-17T00:57:21.828Z,5.50
2019-03-17T00:59:53.558Z,5.60
2019-03-17T01:02:25.296Z,5.60
2019-03-17T01:04:57.177Z,5.60
2019-03-17T01:07:28.860Z,5.50
2019-03-17T01:10:00.705Z,5.50
2019-03-17T01:12:32.411Z,5.50
2019-03-17T01:15:04.002Z,5.50
2019-03-17T01:17:35.654Z,5.50
2019-03-17T01:20:09.030Z,5.50
2019-03-17T01:22:40.689Z,5.50
2019-03-17T01:25:13.131Z,5.60
2019-03-17T01:27:44.880Z,5.50
2019-03-17T01:30:16.567Z,5.60
2019-03-17T01:32:48.335Z,5.60
2019-03-17T01:35:20.246Z,5.60
2019-03-17T01:37:52.066Z,5.70
2019-03-17T01:40:23.689Z,5.70
2019-03-17T01:42:55.450Z,5.70
2019-03-17T01:45:27.117Z,5.70
2019-03-17T01:47:58.756Z,5.70
2019-03-17T01:50:30.580Z,5.60
2019-03-17T01:53:02.247Z,5.70
2019-03-17T01:55:33.926Z,5.60
2019-03-17T01:58:06.069Z,5.60
2019-03-17T02:00:38.056Z,5.70
2019-03-17T02:03:09.781Z,5.60
2019-03-17T02:05:41.585Z,5.50
2019-03-17T02:08:13.677Z,5.60
2019-03-17T02:10:45.307Z,5.50
2019-03-17T02:13:17.051Z,5.60
2019-03-17T02:15:48.837Z,5.50
2019-03-17T02:18:20.638Z,5.50
2019-03-17T02:20:52.394Z,5.50
2019-03-17T02:23:24.119Z,5.50
2019-03-17T02:25:55.989Z,5.40
2019-03-17T02:28:27.731Z,5.40
2019-03-17T02:31:00.480Z,5.40
2019-03-17T02:33:32.095Z,5.40
2019-03-17T02:36:03.686Z,5.40
2019-03-17T02:38:35.478Z,5.40
2019-03-17T02:41:07.398Z,5.30
2019-03-17T02:43:39.113Z,5.30
2019-03-17T02:46:10.849Z,5.30
2019-03-17T02:48:42.573Z,5.30
2019-03-17T02:51:14.387Z,5.40
2019-03-17T02:53:46.074Z,5.40
2019-03-17T02:56:17.760Z,5.30
2019-03-17T02:58:49.403Z,5.30
2019-03-17T03:01:21.201Z,5.40
2019-03-17T03:03:52.959Z,5.40
2019-03-17T03:06:24.818Z,5.40
2019-03-17T03:08:56.523Z,5.40
2019-03-17T03:11:28.416Z,5.40
2019-03-17T03:14:00.047Z,5.50
2019-03-17T03:16:31.871Z,5.60
2019-03-17T03:19:03.626Z,5.50
2019-03-17T03:21:35.267Z,5.60
2019-03-17T03:24:06.927Z,5.60
2019-03-17T03:26:39.617Z,5.60
2019-03-17T03:29:11.508Z,5.60
2019-03-17T03:31:43.295Z,5.60
2019-03-17T03:34:15.042Z,5.60
2019-03-17T03:36:46.828Z,5.70
2019-03-17T03:39:18.372Z,5.70
2019-03-17T03:41:50.091Z,5.80
2019-03-17T03:44:21.901Z,5.70
2019-03-17T03:46:53.659Z,5.70
2019-03-17T03:49:25.903Z,5.70
2019-03-17T03:51:57.720Z,5.80
2019-03-17T03:54:29.374Z,5.80
2019-03-17T03:57:01.106Z,5.80
2019-03-17T03:59:32.812Z,5.80
2019-03-17T04:02:04.638Z,5.80
2019-03-17T04:04:37.357Z,5.80
2019-03-17T04:07:09.100Z,5.90
2019-03-17T04:09:40.850Z,5.90
2019-03-17T04:12:12.760Z,5.80
2019-03-17T04:14:44.439Z,5.90
2019-03-17T04:17:16.189Z,5.90
2019-03-17T04:19:47.933Z,5.90
2019-03-17T04:22:19.683Z,5.90
2019-03-17T04:24:51.497Z,5.90
2019-03-17T04:27:24.268Z,6.00
2019-03-17T04:29:55.950Z,6.00
2019-03-17T04:32:27.615Z,6.00
2019-03-17T04:34:59.342Z,6.00
2019-03-17T04:37:31.746Z,6.00
2019-03-17T04:40:03.398Z,6.10
2019-03-17T04:42:35.055Z,6.10
2019-03-17T04:45:07.847Z,6.10
2019-03-17T04:47:39.684Z,6.10
2019-03-17T04:50:11.492Z,6.10
2019-03-17T04:52:43.373Z,6.10
2019-03-17T04:55:16.165Z,6.10
2019-03-17T04:57:48.036Z,6.10
2019-03-17T05:00:20.009Z,6.10
2019-03-17T05:02:51.819Z,6.20
2019-03-17T05:05:24.482Z,6.20
2019-03-17T05:07:56.147Z,6.20
2019-03-17T05:10:27.872Z,6.20
2019-03-17T05:12:59.571Z,6.30
2019-03-17T05:15:31.635Z,6.30
2019-03-17T05:18:03.424Z,6.30
2019-03-17T05:20:35.150Z,6.30
2019-03-17T05:23:07.014Z,6.40
2019-03-17T05:25:38.664Z,6.40
2019-03-17T05:28:10.365Z,6.50
2019-03-17T05:30:42.065Z,6.50
2019-03-17T05:33:13.739Z,6.50
2019-03-17T05:35:45.503Z,6.60
2019-03-17T05:38:17.134Z,6.60
2019-03-17T05:40:48.854Z,6.70
2019-03-17T05:43:20.672Z,6.70
2019-03-17T05:45:52.451Z,6.80
2019-03-17T05:48:24.090Z,6.80
2019-03-17T05:50:55.801Z,6.90
2019-03-17T05:53:27.652Z,7.00
2019-03-17T05:56:01.091Z,7.00
2019-03-17T05:58:32.741Z,7.00
2019-03-17T06:01:04.581Z,7.10
2019-03-17T06:03:37.301Z,7.10
2019-03-17T06:06:09.067Z,7.20
2019-03-17T06:08:40.852Z,7.20
2019-03-17T06:11:12.501Z,7.20
2019-03-17T06:13:44.207Z,7.20
2019-03-17T06:16:15.876Z,7.30
2019-03-17T06:18:47.626Z,7.30
2019-03-17T06:21:19.372Z,7.30
2019-03-17T06:23:50.945Z,7.40
2019-03-17T06:26:22.723Z,7.50
2019-03-17T06:28:54.793Z,7.60
2019-03-17T06:31:26.562Z,7.60
2019-03-17T06:33:58.215Z,7.70
2019-03-17T06:36:30.019Z,7.70
2019-03-17T06:39:01.700Z,7.70
2019-03-17T06:41:34.853Z,7.70
2019-03-17T06:44:06.602Z,7.80
2019-03-17T06:46:38.537Z,7.90
2019-03-17T06:49:10.260Z,8.00
2019-03-17T06:51:42.300Z,8.10
2019-03-17T06:54:13.941Z,8.20
2019-03-17T06:56:45.760Z,8.20
2019-03-17T06:59:17.844Z,8.30
2019-03-17T07:01:49.709Z,8.30
2019-03-17T07:04:21.605Z,8.40
2019-03-17T07:06:54.238Z,8.50
2019-03-17T07:09:25.983Z,8.80
2019-03-17T07:11:57.824Z,8.90
2019-03-17T07:14:29.403Z,8.90
2019-03-17T07:17:01.300Z,9.00
2019-03-17T07:19:33.051Z,9.10
2019-03-17T07:22:04.784Z,9.30
2019-03-17T07:24:36.444Z,9.50
2019-03-17T07:27:09.155Z,9.60
2019-03-17T07:29:40.824Z,10.10
2019-03-17T07:32:12.617Z,10.30
2019-03-17T07:34:44.374Z,10.30
2019-03-17T07:37:16.184Z,10.30
2019-03-17T07:39:47.914Z,10.30
2019-03-17T07:42:19.645Z,10.40
2019-03-17T07:44:51.412Z,10.30
2019-03-17T07:47:23.104Z,10.30
2019-03-17T07:49:54.742Z,10.40
2019-03-17T07:52:26.562Z,10.30
2019-03-17T07:54:58.318Z,10.40
2019-03-17T07:57:30.127Z,10.40
2019-03-17T08:00:01.854Z,10.40
2019-03-17T08:02:33.646Z,10.50
2019-03-17T08:05:07.102Z,10.80
2019-03-17T08:07:39.122Z,10.90
2019-03-17T08:10:11.691Z,11.10
2019-03-17T08:12:43.460Z,11.20
2019-03-17T08:15:16.507Z,11.20
2019-03-17T08:17:48.273Z,11.60
2019-03-17T08:20:20.270Z,11.80
2019-03-17T08:22:52.081Z,12.10
2019-03-17T08:25:23.810Z,12.10
2019-03-17T08:27:55.550Z,12.10
2019-03-17T08:30:27.348Z,12.00
2019-03-17T08:32:59.139Z,12.00
2019-03-17T08:35:30.824Z,12.20
2019-03-17T08:38:02.647Z,12.20
2019-03-17T08:40:34.284Z,12.30
2019-03-17T08:43:06.104Z,12.40
2019-03-17T08:45:38.134Z,12.50
2019-03-17T08:48:12.074Z,12.70
2019-03-17T08:50:43.692Z,12.90
2019-03-17T08:53:15.424Z,13.00
2019-03-17T08:55:47.134Z,13.10
2019-03-17T08:58:18.914Z,13.00
2019-03-17T09:00:50.785Z,13.00
2019-03-17T09:03:22.485Z,12.90
2019-03-17T09:05:54.243Z,12.80
2019-03-17T09:08:34.965Z,12.90
2019-03-17T09:10:59.762Z,13.00
2019-03-17T09:13:33.203Z,13.20
2019-03-17T09:16:05.320Z,13.40
2019-03-17T09:18:37.000Z,13.70
2019-03-17T09:21:09.090Z,14.00
2019-03-17T09:23:42.699Z,13.90
2019-03-17T09:26:14.860Z,14.00
2019-03-17T09:28:46.775Z,14.20
2019-03-17T09:31:18.350Z,14.30
2019-03-17T09:33:50.491Z,14.70
2019-03-17T09:36:22.218Z,14.90
2019-03-17T09:38:54.270Z,15.30
2019-03-17T09:41:25.920Z,15.20
2019-03-17T09:43:57.580Z,15.30
2019-03-17T09:46:29.221Z,15.10
2019-03-17T09:49:00.961Z,15.00
2019-03-17T09:51:32.620Z,14.90
2019-03-17T09:54:04.392Z,14.70
2019-03-17T09:56:36.070Z,14.60
2019-03-17T09:59:07.840Z,14.40
2019-03-17T10:01:39.550Z,14.20
2019-03-17T10:04:11.339Z,14.40
2019-03-17T10:06:43.191Z,14.60
2019-03-17T10:09:14.878Z,14.70
2019-03-17T10:11:46.760Z,14.60
2019-03-17T10:14:18.460Z,14.60
2019-03-17T10:16:50.398Z,14.40
2019-03-17T10:19:22.420Z,14.30
2019-03-17T10:21:54.312Z,14.20
2019-03-17T10:24:25.990Z,14.20
2019-03-17T10:26:57.672Z,14.10
2019-03-17T10:29:29.410Z,14.20
2019-03-17T10:32:01.180Z,14.40
2019-03-17T10:34:34.010Z,14.60
2019-03-17T10:37:05.893Z,14.90
2019-03-17T10:39:37.590Z,15.00
2019-03-17T10:42:09.560Z,15.20
2019-03-17T10:44:41.714Z,15.40
2019-03-17T10:47:13.848Z,15.30
2019-03-17T10:49:45.710Z,15.10
2019-03-17T10:52:17.328Z,15.20
2019-03-17T10:54:49.080Z,15.40
2019-03-17T10:57:20.970Z,15.60
2019-03-17T10:59:53.250Z,15.40
2019-03-17T11:02:25.062Z,15.30
2019-03-17T11:04:56.801Z,15.10
2019-03-17T11:07:28.573Z,15.20
2019-03-17T11:10:00.251Z,15.30
2019-03-17T11:12:32.117Z,15.30
2019-03-17T11:15:04.120Z,15.20
2019-03-17T11:17:35.934Z,15.30
2019-03-17T11:20:08.794Z,15.30
2019-03-17T11:22:40.790Z,15.50
2019-03-17T11:25:12.530Z,15.60
2019-03-17T11:27:44.372Z,15.70
2019-03-17T11:30:16.330Z,15.70
2019-03-17T11:32:48.288Z,15.80
2019-03-17T11:35:21.084Z,15.80
2019-03-17T11:37:52.876Z,15.90
2019-03-17T11:40:24.897Z,15.90
2019-03-17T11:42:56.764Z,16.00
2019-03-17T11:45:28.546Z,16.10
2019-03-17T11:48:00.317Z,16.20
2019-03-17T11:50:32.081Z,16.20
2019-03-17T11:53:03.658Z,16.30
2019-03-17T11:55:35.609Z,16.30
2019-03-17T11:58:07.368Z,16.20
2019-03-17T12:00:39.303Z,16.30
2019-03-17T12:03:11.022Z,16.30
2019-03-17T12:05:42.671Z,16.30
2019-03-17T12:08:14.590Z,16.40
2019-03-17T12:10:46.328Z,16.50
2019-03-17T12:13:18.062Z,16.50
2019-03-17T12:15:50.011Z,16.50
2019-03-17T12:18:21.728Z,16.50
2019-03-17T12:20:53.467Z,16.50
2019-03-17T12:23:25.203Z,16.50
2019-03-17T12:25:56.903Z,16.50
2019-03-17T12:28:28.575Z,16.60
2019-03-17T12:31:01.952Z,16.60
2019-03-17T12:33:33.667Z,16.70
2019-03-17T12:36:05.757Z,16.60
2019-03-17T12:38:37.477Z,16.60
2019-03-17T12:41:09.146Z,16.60
2019-03-17T12:43:40.837Z,16.70
2019-03-17T12:46:12.598Z,16.80
2019-03-17T12:48:44.263Z,17.00
2019-03-17T12:51:15.896Z,17.10
2019-03-17T12:53:47.619Z,17.10
2019-03-17T12:56:19.331Z,17.00
2019-03-17T12:58:51.171Z,17.10
2019-03-17T13:01:23.038Z,17.20
2019-03-17T13:03:54.698Z,17.20
2019-03-17T13:06:26.421Z,17.40
2019-03-17T13:09:00.879Z,17.60
2019-03-17T13:11:31.396Z,17.50
2019-03-17T13:14:03.080Z,17.40
2019-03-17T13:16:34.918Z,17.20
2019-03-17T13:19:06.517Z,17.30
2019-03-17T13:21:38.236Z,17.40
2019-03-17T13:24:10.275Z,17.50
2019-03-17T13:26:42.036Z,17.40
2019-03-17T13:29:13.712Z,17.40
2019-03-17T13:31:45.543Z,17.40
2019-03-17T13:34:17.290Z,17.30
2019-03-17T13:36:49.062Z,17.30
2019-03-17T13:39:20.996Z,17.50
2019-03-17T13:41:52.800Z,17.50
2019-03-17T13:44:24.593Z,17.50
2019-03-17T13:46:56.274Z,17.60
2019-03-17T13:49:28.152Z,17.60
2019-03-17T13:51:59.970Z,17.50
2019-03-17T13:54:31.873Z,17.50
2019-03-17T13:57:03.688Z,17.40
2019-03-17T13:59:35.459Z,17.50
2019-03-17T14:02:07.296Z,17.40
2019-03-17T14:04:39.119Z,17.40
2019-03-17T14:07:10.776Z,17.50
2019-03-17T14:09:42.340Z,17.50
2019-03-17T14:12:14.193Z,17.50
2019-03-17T14:14:46.986Z,17.50
2019-03-17T14:17:19.904Z,17.50
2019-03-17T14:19:51.720Z,17.50
2019-03-17T14:22:23.543Z,17.60
2019-03-17T14:24:55.205Z,17.70
2019-03-17T14:27:27.056Z,17.80
2019-03-17T14:29:58.770Z,17.80
2019-03-17T14:32:30.569Z,17.80
2019-03-17T14:35:02.215Z,17.80
2019-03-17T14:37:33.938Z,17.80
2019-03-17T14:40:06.558Z,17.80
2019-03-17T14:42:38.452Z,17.70
2019-03-17T14:45:11.410Z,17.80
2019-03-17T14:47:43.079Z,17.80
2019-03-17T14:50:16.695Z,17.70
2019-03-17T14:52:49.464Z,17.70
2019-03-17T14:55:22.532Z,17.70
2019-03-17T14:57:54.409Z,17.80
2019-03-17T15:00:26.176Z,17.80
2019-03-17T15:02:57.845Z,17.80
2019-03-17T15:05:30.918Z,17.90
2019-03-17T15:08:02.778Z,17.90
2019-03-17T15:10:34.395Z,17.80
2019-03-17T15:13:06.259Z,17.90
2019-03-17T15:15:37.853Z,17.80
2019-03-17T15:18:09.806Z,17.80
2019-03-17T15:20:41.910Z,17.80
2019-03-17T15:23:13.734Z,17.70
2019-03-17T15:25:45.483Z,17.70
2019-03-17T15:28:17.473Z,17.70
2019-03-17T15:31:05.598Z,17.70
2019-03-17T15:33:23.023Z,17.60
2019-03-17T15:35:54.852Z,17.70
2019-03-17T15:38:26.579Z,17.60
2019-03-17T15:40:59.208Z,17.60
2019-03-17T15:43:30.985Z,17.60
2019-03-17T15:46:02.678Z,17.60
2019-03-17T15:48:35.430Z,17.50
2019-03-17T15:51:19.263Z,17.50
2019-03-17T15:53:40.488Z,17.50
2019-03-17T15:56:12.257Z,17.50
2019-03-17T15:58:44.022Z,17.50
2019-03-17T16:01:16.006Z,17.50
2019-03-17T16:03:48.161Z,17.50
2019-03-17T16:06:19.984Z,17.50
2019-03-17T16:08:51.728Z,17.50
2019-03-17T16:11:30.814Z,17.50
2019-03-17T16:13:56.904Z,17.50
2019-03-17T16:16:28.797Z,17.30
2019-03-17T16:19:00.497Z,17.30
2019-03-17T16:21:32.268Z,17.20
2019-03-17T16:24:04.037Z,17.20
2019-03-17T16:26:35.696Z,17.00
2019-03-17T16:29:07.445Z,16.90
2019-03-17T16:31:39.108Z,16.80
2019-03-17T16:34:11.861Z,16.60
2019-03-17T16:36:43.768Z,16.50
2019-03-17T16:39:15.653Z,16.30
2019-03-17T16:41:47.327Z,16.20
2019-03-17T16:44:19.123Z,16.10
2019-03-17T16:46:51.116Z,16.10
2019-03-17T16:49:22.895Z,16.00
2019-03-17T16:51:54.733Z,15.90
2019-03-17T16:54:26.408Z,15.80
2019-03-17T16:56:58.083Z,15.80
2019-03-17T16:59:29.731Z,15.70
2019-03-17T17:02:01.524Z,15.50
2019-03-17T17:04:33.121Z,15.50
2019-03-17T17:07:04.843Z,15.40
2019-03-17T17:09:36.561Z,15.30
2019-03-17T17:12:08.325Z,15.20
2019-03-17T17:14:39.969Z,15.20
2019-03-17T17:17:11.634Z,15.10
2019-03-17T17:19:43.329Z,15.10
2019-03-17T17:22:15.044Z,15.10
2019-03-17T17:24:46.913Z,15.00
2019-03-17T17:27:20.603Z,15.00
2019-03-17T17:29:52.095Z,14.90
2019-03-17T17:32:23.887Z,14.90
2019-03-17T17:34:55.821Z,14.80
2019-03-17T17:37:27.515Z,14.80
2019-03-17T17:39:59.199Z,14.70
2019-03-17T17:42:31.000Z,14.70
2019-03-17T17:45:02.711Z,14.70
2019-03-17T17:47:34.412Z,14.60
2019-03-17T17:50:07.098Z,14.60
2019-03-17T17:52:38.893Z,14.50
2019-03-17T17:55:10.692Z,14.50
2019-03-17T17:57:42.548Z,14.40
2019-03-17T18:00:17.569Z,14.30
2019-03-17T18:02:49.642Z,14.30
2019-03-17T18:05:21.262Z,14.20
2019-03-17T18:07:53.191Z,14.30
2019-03-17T18:10:25.947Z,14.30
2019-03-17T18:12:57.601Z,14.30
2019-03-17T18:15:29.460Z,14.20
2019-03-17T18:18:01.458Z,14.10
2019-03-17T18:20:33.082Z,14.10
2019-03-17T18:23:16.876Z,14.10
2019-03-17T18:25:39.137Z,14.00
2019-03-17T18:28:11.211Z,14.00
2019-03-17T18:30:42.934Z,13.90
2019-03-17T18:33:14.686Z,13.90
2019-03-17T18:35:46.346Z,13.80
2019-03-17T18:38:18.386Z,13.70
2019-03-17T18:40:50.260Z,13.70
2019-03-17T18:43:23.526Z,13.70
2019-03-17T18:45:55.175Z,13.60
2019-03-17T18:48:26.934Z,13.60
2019-03-17T18:50:59.056Z,13.50
2019-03-17T18:53:31.028Z,13.40
2019-03-17T18:56:02.909Z,13.40
2019-03-17T18:58:35.692Z,13.30
2019-03-17T19:01:07.389Z,13.30
2019-03-17T19:03:39.150Z,13.30
2019-03-17T19:06:10.768Z,13.20
2019-03-17T19:08:42.597Z,13.20
2019-03-17T19:11:14.238Z,13.20
2019-03-17T19:13:45.862Z,13.20
2019-03-17T19:16:17.587Z,13.20
2019-03-17T19:18:49.377Z,13.20
2019-03-17T19:21:21.320Z,13.20
2019-03-17T19:23:53.038Z,13.10
2019-03-17T19:26:24.866Z,13.10
2019-03-17T19:28:56.584Z,13.10
2019-03-17T19:31:28.335Z,13.00
2019-03-17T19:34:00.152Z,13.00
2019-03-17T19:36:32.416Z,13.00
2019-03-17T19:39:05.796Z,13.00
2019-03-17T19:41:37.618Z,13.00
2019-03-17T19:44:09.532Z,13.00
2019-03-17T19:46:41.225Z,13.00
2019-03-17T19:49:13.168Z,13.00
2019-03-17T19:51:44.882Z,12.90
2019-03-17T19:54:16.722Z,13.00
2019-03-17T19:56:48.463Z,12.90
2019-03-17T19:59:20.326Z,12.90
2019-03-17T20:01:52.101Z,12.90
2019-03-17T20:04:30.455Z,12.90
2019-03-17T20:06:57.396Z,12.90
2019-03-17T20:09:29.219Z,12.90
2019-03-17T20:12:02.049Z,12.90
2019-03-17T20:14:34.075Z,12.80
2019-03-17T20:17:06.024Z,12.80
2019-03-17T20:19:37.919Z,12.80
2019-03-17T20:22:09.691Z,12.70
2019-03-17T20:24:41.489Z,12.60
2019-03-17T20:27:13.306Z,12.60
2019-03-17T20:29:45.129Z,12.60
2019-03-17T20:32:17.269Z,12.50
2019-03-17T20:34:49.135Z,12.50
2019-03-17T20:37:20.897Z,12.50
2019-03-17T20:39:54.114Z,12.50
2019-03-17T20:42:27.095Z,12.50
2019-03-17T20:44:58.922Z,12.40
2019-03-17T20:47:30.807Z,12.30
2019-03-17T20:50:02.865Z,12.20
2019-03-17T20:52:35.600Z,12.20
2019-03-17T20:55:07.713Z,12.20
2019-03-17T20:57:39.503Z,12.10
2019-03-17T21:00:13.235Z,12.10
2019-03-17T21:02:44.982Z,12.00
2019-03-17T21:05:16.462Z,12.10
2019-03-17T21:07:48.147Z,12.10
2019-03-17T21:10:19.998Z,12.10
2019-03-17T21:12:52.127Z,12.00
2019-03-17T21:15:23.833Z,12.00
2019-03-17T21:17:55.591Z,12.00
2019-03-17T21:20:27.651Z,12.00
2019-03-17T21:22:59.430Z,11.90
2019-03-17T21:25:31.389Z,11.90
2019-03-17T21:28:03.151Z,11.80
2019-03-17T21:30:34.816Z,11.80
2019-03-17T21:33:06.714Z,11.70
2019-03-17T21:35:38.447Z,11.60
2019-03-17T21:38:13.023Z,11.60
2019-03-17T21:41:01.587Z,11.50
2019-03-17T21:43:18.215Z,11.40
2019-03-17T21:45:50.178Z,11.40
2019-03-17T21:48:22.889Z,11.40
2019-03-17T21:50:54.585Z,11.50
2019-03-17T21:53:26.691Z,11.50
2019-03-17T21:55:58.583Z,11.50
2019-03-17T21:58:30.270Z,11.60
2019-03-17T22:01:02.342Z,11.60
2019-03-17T22:03:34.153Z,11.60
2019-03-17T22:06:05.854Z,11.60
2019-03-17T22:08:37.668Z,11.60
2019-03-17T22:11:09.506Z,11.60
2019-03-17T22:13:41.272Z,11.60
2019-03-17T22:16:12.963Z,11.60
2019-03-17T22:18:44.605Z,11.60
2019-03-17T22:21:16.380Z,11.80
2019-03-17T22:23:48.175Z,11.90
2019-03-17T22:26:20.021Z,12.00
2019-03-17T22:28:51.691Z,11.90
2019-03-17T22:31:23.595Z,11.90
2019-03-17T22:33:55.290Z,11.80
2019-03-17T22:36:26.950Z,11.70
2019-03-17T22:38:58.755Z,11.50
2019-03-17T22:41:30.614Z,11.40
2019-03-17T22:44:02.360Z,11.20
2019-03-17T22:46:34.080Z,11.00
2019-03-17T22:49:05.862Z,10.80
2019-03-17T22:51:37.603Z,10.70
2019-03-17T22:54:09.315Z,10.50
2019-03-17T22:56:40.967Z,10.50
2019-03-17T22:59:12.616Z,10.40
2019-03-17T23:01:44.460Z,10.30
2019-03-17T23:04:16.157Z,10.10
2019-03-17T23:06:48.016Z,10.00
2019-03-17T23:09:20.092Z,10.00
2019-03-17T23:11:51.869Z,9.80
2019-03-17T23:14:35.937Z,9.80
2019-03-17T23:16:56.993Z,9.80
2019-03-17T23:19:28.670Z,9.80
2019-03-17T23:22:04.461Z,9.70
2019-03-17T23:24:36.172Z,9.60
2019-03-17T23:27:07.980Z,9.70
2019-03-17T23:29:39.693Z,9.60
2019-03-17T23:32:12.031Z,9.60
2019-03-17T23:34:43.847Z,9.50
2019-03-17T23:37:15.670Z,9.50
2019-03-17T23:39:47.324Z,9.40
2019-03-17T23:42:19.260Z,9.40
2019-03-17T23:44:51.104Z,9.40
2019-03-17T23:50:40.514Z,9.40
2019-03-17T23:53:12.324Z,9.40
2019-03-17T23:55:44.033Z,9.30
2019-03-17T23:58:15.743Z,9.20
